createdAt,value
2018-05-18T00:00:07.235Z,61.67
2018-05-18T00:02:34.686Z,62.00
2018-05-18T00:05:02.163Z,63.90
2018-05-18T00:07:29.619Z,59.93
2018-05-18T00:09:57.088Z,62.53
2018-05-18T00:12:24.538Z,61.13
2018-05-18T00:14:52.009Z,62.77
2018-05-18T00:17:19.451Z,67.40
2018-05-18T00:19:46.898Z,65.97
2018-05-18T00:22:14.381Z,64.93
2018-05-18T00:24:41.833Z,69.47
2018-05-18T00:27:09.290Z,65.60
2018-05-18T00:29:36.772Z,66.20
2018-05-18T00:32:04.991Z,66.17
2018-05-18T00:34:32.463Z,69.30
2018-05-18T00:36:59.914Z,67.97
2018-05-18T00:39:27.378Z,71.97
2018-05-18T00:41:54.827Z,69.53
2018-05-18T00:44:22.296Z,70.07
2018-05-18T00:46:49.763Z,69.90
2018-05-18T00:49:17.237Z,69.73
2018-05-18T00:51:45.468Z,69.40
2018-05-18T00:54:12.940Z,66.00
2018-05-18T00:56:40.398Z,67.17
2018-05-18T00:59:07.858Z,73.27
2018-05-18T01:01:35.321Z,67.50
2018-05-18T01:04:02.774Z,69.57
2018-05-18T01:06:30.223Z,65.17
2018-05-18T01:08:57.692Z,67.90
2018-05-18T01:11:25.147Z,66.33
2018-05-18T01:13:52.608Z,66.33
2018-05-18T01:16:20.054Z,64.07
2018-05-18T01:18:47.504Z,64.50
2018-05-18T01:21:14.963Z,63.87
2018-05-18T01:23:42.431Z,60.70
2018-05-18T01:26:09.897Z,60.90
2018-05-18T01:28:37.372Z,63.47
2018-05-18T01:31:05.592Z,62.73
2018-05-18T01:33:33.046Z,64.10
2018-05-18T01:36:01.271Z,63.37
2018-05-18T01:38:28.742Z,59.97
2018-05-18T01:40:56.977Z,62.87
2018-05-18T01:43:24.427Z,60.87
2018-05-18T01:45:51.870Z,57.63
2018-05-18T01:48:19.321Z,58.97
2018-05-18T01:50:46.783Z,59.47
2018-05-18T01:53:14.234Z,61.87
2018-05-18T01:55:41.918Z,61.13
2018-05-18T01:58:09.375Z,62.03
2018-05-18T02:00:36.819Z,59.40
2018-05-18T02:03:04.271Z,58.83
2018-05-18T02:05:31.732Z,60.73
2018-05-18T02:07:59.177Z,58.60
2018-05-18T02:10:26.627Z,59.73
2018-05-18T02:12:54.095Z,57.90
2018-05-18T02:15:21.638Z,56.47
2018-05-18T02:17:49.024Z,58.57
2018-05-18T02:20:16.465Z,54.37
2018-05-18T02:22:43.933Z,56.37
2018-05-18T02:25:11.400Z,56.43
2018-05-18T02:27:38.853Z,56.70
2018-05-18T02:30:06.315Z,59.20
2018-05-18T02:32:33.774Z,54.87
2018-05-18T02:35:01.239Z,54.03
2018-05-18T02:37:28.709Z,54.57
2018-05-18T02:39:56.183Z,54.57
2018-05-18T02:42:24.402Z,54.30
2018-05-18T02:44:51.866Z,54.53
2018-05-18T02:47:19.326Z,59.23
2018-05-18T02:49:46.778Z,55.23
2018-05-18T02:52:14.236Z,60.67
2018-05-18T02:54:41.694Z,57.23
2018-05-18T02:57:09.751Z,56.57
2018-05-18T02:59:37.225Z,57.67
2018-05-18T03:02:04.682Z,60.73
2018-05-18T03:04:32.147Z,61.30
2018-05-18T03:06:59.616Z,60.60
2018-05-18T03:09:27.081Z,61.10
2018-05-18T03:11:54.544Z,62.87
2018-05-18T03:14:22.015Z,61.83
2018-05-18T03:16:50.238Z,61.87
2018-05-18T03:19:17.715Z,60.17
2018-05-18T03:21:45.166Z,54.83
2018-05-18T03:24:12.624Z,55.20
2018-05-18T03:26:40.087Z,57.10
2018-05-18T03:29:07.573Z,57.20
2018-05-18T03:31:35.794Z,57.10
2018-05-18T03:34:03.253Z,59.73
2018-05-18T03:36:30.715Z,58.90
2018-05-18T03:38:58.155Z,59.90
2018-05-18T03:41:25.611Z,59.70
2018-05-18T03:43:53.069Z,60.73
2018-05-18T03:46:20.522Z,57.00
2018-05-18T03:48:47.978Z,60.07
2018-05-18T03:51:15.439Z,58.90
2018-05-18T03:53:42.890Z,61.70
2018-05-18T03:56:10.350Z,57.23
2018-05-18T03:58:37.810Z,58.80
2018-05-18T04:01:05.283Z,58.77
2018-05-18T04:03:44.459Z,59.47
2018-05-18T04:06:24.502Z,59.37
2018-05-18T04:08:53.508Z,57.80
2018-05-18T04:11:21.721Z,60.40
2018-05-18T04:13:49.180Z,58.50
2018-05-18T04:16:16.639Z,56.97
2018-05-18T04:18:44.851Z,59.53
2018-05-18T04:21:12.316Z,58.13
2018-05-18T04:23:39.762Z,55.57
2018-05-18T04:26:07.217Z,61.77
2018-05-18T04:28:34.667Z,57.83
2018-05-18T04:31:02.131Z,57.87
2018-05-18T04:33:29.577Z,57.90
2018-05-18T04:35:57.065Z,52.00
2018-05-18T04:38:25.284Z,56.90
2018-05-18T04:40:52.742Z,51.40
2018-05-18T04:43:20.225Z,48.53
2018-05-18T04:45:47.668Z,45.27
2018-05-18T04:48:15.111Z,43.07
2018-05-18T04:50:42.584Z,44.23
2018-05-18T04:53:10.040Z,45.07
2018-05-18T04:55:37.500Z,41.20
2018-05-18T04:58:04.948Z,40.47
2018-05-18T05:00:32.411Z,39.90
2018-05-18T05:02:59.858Z,38.10
2018-05-18T05:05:27.383Z,36.43
2018-05-18T05:07:54.790Z,37.30
2018-05-18T05:10:22.257Z,33.87
2018-05-18T05:12:49.711Z,34.27
2018-05-18T05:15:17.185Z,36.17
2018-05-18T05:17:44.638Z,34.83
2018-05-18T05:20:12.095Z,31.40
2018-05-18T05:22:40.325Z,30.13
2018-05-18T05:25:07.786Z,30.10
2018-05-18T05:27:35.329Z,28.37
2018-05-18T05:30:02.706Z,26.10
2018-05-18T05:32:30.163Z,26.30
2018-05-18T05:34:57.619Z,27.13
2018-05-18T05:37:25.089Z,23.87
2018-05-18T05:39:52.561Z,21.53
2018-05-18T05:42:20.016Z,21.33
2018-05-18T05:44:47.473Z,21.30
2018-05-18T05:47:14.918Z,21.50
2018-05-18T05:49:42.365Z,22.57
2018-05-18T05:52:09.812Z,21.20
2018-05-18T05:54:37.253Z,20.90
2018-05-18T05:57:04.708Z,19.43
2018-05-18T05:59:32.168Z,19.67
2018-05-18T06:01:59.620Z,16.83
2018-05-18T06:04:27.080Z,15.43
2018-05-18T06:06:54.543Z,16.40
2018-05-18T06:09:22.006Z,17.67
2018-05-18T06:11:49.456Z,14.67
2018-05-18T06:14:16.895Z,15.20
2018-05-18T06:16:44.346Z,13.20
2018-05-18T06:19:11.816Z,13.20
2018-05-18T06:21:39.289Z,13.90
2018-05-18T06:24:06.735Z,14.47
2018-05-18T06:26:34.197Z,14.10
2018-05-18T06:29:01.668Z,14.83
2018-05-18T06:31:29.120Z,14.30
2018-05-18T06:33:56.567Z,15.87
2018-05-18T06:36:24.036Z,15.20
2018-05-18T06:38:51.493Z,16.60
2018-05-18T06:41:18.951Z,17.07
2018-05-18T06:43:46.394Z,18.20
2018-05-18T06:46:13.865Z,16.87
2018-05-18T06:48:41.317Z,16.00
2018-05-18T06:51:08.784Z,18.43
2018-05-18T06:53:36.233Z,20.13
2018-05-18T06:56:03.686Z,19.50
2018-05-18T06:58:31.144Z,18.37
2018-05-18T07:00:58.604Z,18.87
2018-05-18T07:03:26.066Z,17.73
2018-05-18T07:05:53.519Z,18.77
2018-05-18T07:08:20.971Z,19.97
2018-05-18T07:10:48.435Z,18.40
2018-05-18T07:13:15.891Z,18.13
2018-05-18T07:15:43.351Z,18.57
2018-05-18T07:18:10.804Z,18.00
2018-05-18T07:20:38.258Z,18.90
2018-05-18T07:23:05.774Z,18.77
2018-05-18T07:25:33.179Z,19.87
2018-05-18T07:28:00.633Z,17.67
2018-05-18T07:30:28.097Z,19.97
2018-05-18T07:32:55.553Z,19.53
2018-05-18T07:35:23.001Z,19.93
2018-05-18T07:37:50.472Z,18.50
2018-05-18T07:40:17.919Z,20.10
2018-05-18T07:42:45.383Z,19.17
2018-05-18T07:45:12.847Z,20.20
2018-05-18T07:47:40.306Z,21.03
2018-05-18T07:50:07.802Z,19.30
2018-05-18T07:52:36.698Z,19.90
2018-05-18T07:55:04.155Z,19.27
2018-05-18T07:57:31.616Z,19.93
2018-05-18T07:59:59.053Z,20.10
2018-05-18T08:02:26.520Z,19.73
2018-05-18T08:04:53.992Z,18.10
2018-05-18T08:07:21.446Z,18.50
2018-05-18T08:09:48.925Z,19.40
2018-05-18T08:12:16.384Z,18.63
2018-05-18T08:14:43.832Z,18.60
2018-05-18T08:17:11.354Z,17.20
2018-05-18T08:19:38.773Z,17.70
2018-05-18T08:22:06.222Z,17.33
2018-05-18T08:24:33.664Z,16.67
2018-05-18T08:27:13.031Z,17.20
2018-05-18T08:29:41.175Z,14.43
2018-05-18T08:32:08.639Z,15.33
2018-05-18T08:34:36.101Z,17.60
2018-05-18T08:37:03.589Z,15.87
2018-05-18T08:39:31.052Z,16.23
2018-05-18T08:41:59.284Z,14.67
2018-05-18T08:44:26.747Z,13.90
2018-05-18T08:46:54.175Z,15.00
2018-05-18T08:49:21.718Z,14.30
2018-05-18T08:51:49.097Z,15.33
2018-05-18T08:54:16.554Z,15.20
2018-05-18T08:56:44.016Z,14.70
2018-05-18T08:59:11.493Z,14.40
2018-05-18T09:01:38.939Z,15.70
2018-05-18T09:04:06.405Z,14.70
2018-05-18T09:06:33.850Z,13.90
2018-05-18T09:09:01.316Z,13.80
2018-05-18T09:11:28.762Z,13.20
2018-05-18T09:13:56.222Z,14.27
2018-05-18T09:16:23.667Z,14.20
2018-05-18T09:18:51.129Z,11.80
2018-05-18T09:21:18.583Z,12.37
2018-05-18T09:23:46.043Z,13.90
2018-05-18T09:26:13.509Z,13.80
2018-05-18T09:28:40.978Z,13.30
2018-05-18T09:31:08.426Z,12.63
2018-05-18T09:33:35.899Z,12.50
2018-05-18T09:36:03.344Z,13.77
2018-05-18T09:38:30.832Z,11.63
2018-05-18T09:40:58.254Z,12.50
2018-05-18T09:43:25.740Z,12.73
2018-05-18T09:45:53.956Z,12.47
2018-05-18T09:48:21.428Z,12.90
2018-05-18T09:50:49.710Z,13.47
2018-05-18T09:53:17.162Z,13.93
2018-05-18T09:55:44.615Z,13.40
2018-05-18T09:58:12.192Z,12.13
2018-05-18T10:00:39.670Z,11.90
2018-05-18T10:03:07.095Z,12.13
2018-05-18T10:05:34.573Z,11.20
2018-05-18T10:08:02.029Z,12.47
2018-05-18T10:10:29.497Z,10.57
2018-05-18T10:12:57.087Z,11.00
2018-05-18T10:15:24.533Z,13.07
2018-05-18T10:17:52.776Z,10.17
2018-05-18T10:20:20.239Z,11.17
2018-05-18T10:22:47.712Z,10.40
2018-05-18T10:25:16.674Z,12.30
2018-05-18T10:27:44.125Z,11.93
2018-05-18T10:30:11.583Z,12.47
2018-05-18T10:32:39.811Z,12.53
2018-05-18T10:35:08.002Z,12.40
2018-05-18T10:37:35.470Z,12.13
2018-05-18T10:40:02.924Z,11.40
2018-05-18T10:42:30.382Z,11.30
2018-05-18T10:44:57.842Z,12.10
2018-05-18T10:47:25.298Z,11.53
2018-05-18T10:49:52.754Z,11.33
2018-05-18T10:52:20.224Z,11.73
2018-05-18T10:54:47.676Z,10.13
2018-05-18T10:57:15.898Z,9.47
2018-05-18T10:59:44.126Z,10.33
2018-05-18T11:02:11.572Z,10.67
2018-05-18T11:04:39.022Z,10.93
2018-05-18T11:07:06.469Z,11.23
2018-05-18T11:09:33.947Z,10.40
2018-05-18T11:12:01.410Z,11.27
2018-05-18T11:14:28.861Z,8.77
2018-05-18T11:16:56.329Z,8.20
2018-05-18T11:19:23.779Z,9.30
2018-05-18T11:21:51.242Z,7.97
2018-05-18T11:24:18.715Z,9.10
2018-05-18T11:26:46.800Z,9.30
2018-05-18T11:29:15.035Z,8.90
2018-05-18T11:31:42.499Z,7.40
2018-05-18T11:34:09.967Z,8.00
2018-05-18T11:36:37.409Z,8.37
2018-05-18T11:39:05.820Z,7.30
2018-05-18T11:41:33.217Z,7.53
2018-05-18T11:44:01.456Z,7.50
2018-05-18T11:46:28.903Z,8.47
2018-05-18T11:48:56.372Z,8.80
2018-05-18T11:51:24.612Z,8.33
2018-05-18T11:53:52.058Z,8.03
2018-05-18T11:56:19.516Z,8.17
2018-05-18T11:58:46.989Z,8.30
2018-05-18T12:01:14.452Z,8.43
2018-05-18T12:03:42.673Z,8.87
2018-05-18T12:06:10.123Z,6.70
2018-05-18T12:08:38.383Z,6.07
2018-05-18T12:11:05.808Z,8.63
2018-05-18T12:13:33.254Z,7.80
2018-05-18T12:16:00.698Z,8.13
2018-05-18T12:18:28.167Z,7.17
2018-05-18T12:20:55.613Z,6.83
2018-05-18T12:23:23.054Z,6.70
2018-05-18T12:25:50.564Z,6.73
2018-05-18T12:28:18.015Z,6.80
2018-05-18T12:30:45.464Z,7.70
2018-05-18T12:33:12.906Z,8.30
2018-05-18T12:35:40.371Z,7.20
2018-05-18T12:38:07.915Z,8.00
2018-05-18T12:40:35.427Z,7.30
2018-05-18T12:43:03.671Z,6.47
2018-05-18T12:45:31.145Z,7.17
2018-05-18T12:47:58.605Z,5.17
2018-05-18T12:50:26.047Z,6.17
2018-05-18T12:52:53.490Z,5.43
2018-05-18T12:55:20.951Z,6.40
2018-05-18T12:57:48.409Z,6.77
2018-05-18T13:00:15.864Z,6.60
2018-05-18T13:02:43.319Z,7.77
2018-05-18T13:05:10.770Z,7.10
2018-05-18T13:07:38.207Z,7.27
2018-05-18T13:10:05.668Z,6.53
2018-05-18T13:12:33.122Z,7.50
2018-05-18T13:15:00.599Z,7.30
2018-05-18T13:17:28.055Z,6.80
2018-05-18T13:19:55.511Z,6.90
2018-05-18T13:22:22.980Z,7.57
2018-05-18T13:24:50.446Z,7.00
2018-05-18T13:27:17.892Z,6.70
2018-05-18T13:29:45.349Z,7.93
2018-05-18T13:32:12.808Z,7.00
2018-05-18T13:34:40.259Z,7.30
2018-05-18T13:37:07.715Z,6.60
2018-05-18T13:39:35.162Z,6.27
2018-05-18T13:42:02.616Z,7.03
2018-05-18T13:44:30.822Z,6.20
2018-05-18T13:46:58.296Z,8.30
2018-05-18T13:49:25.746Z,6.60
2018-05-18T13:51:53.979Z,6.87
2018-05-18T13:54:21.440Z,8.43
2018-05-18T13:56:48.890Z,6.97
2018-05-18T13:59:16.339Z,7.17
2018-05-18T14:01:43.806Z,7.20
2018-05-18T14:04:11.266Z,7.63
2018-05-18T14:06:38.710Z,7.30
2018-05-18T14:09:07.279Z,7.00
2018-05-18T14:11:34.737Z,7.10
2018-05-18T14:14:02.211Z,6.30
2018-05-18T14:16:29.655Z,7.27
2018-05-18T14:18:57.116Z,6.43
2018-05-18T14:21:24.546Z,8.10
2018-05-18T14:23:52.025Z,6.40
2018-05-18T14:26:19.550Z,5.30
2018-05-18T14:28:46.923Z,6.80
2018-05-18T14:31:14.394Z,6.90
2018-05-18T14:33:41.861Z,8.00
2018-05-18T14:36:09.336Z,8.37
2018-05-18T14:38:36.798Z,10.33
2018-05-18T14:41:04.245Z,9.97
2018-05-18T14:43:31.699Z,10.03
2018-05-18T14:45:59.155Z,9.83
2018-05-18T14:48:26.607Z,11.00
2018-05-18T14:50:54.072Z,11.40
2018-05-18T14:53:21.540Z,13.33
2018-05-18T14:55:49.013Z,13.93
2018-05-18T14:58:16.461Z,14.70
2018-05-18T15:00:43.919Z,13.43
2018-05-18T15:03:11.406Z,14.57
2018-05-18T15:05:39.654Z,15.70
2018-05-18T15:08:07.094Z,17.17
2018-05-18T15:10:34.545Z,18.03
2018-05-18T15:13:02.010Z,19.27
2018-05-18T15:15:29.455Z,16.43
2018-05-18T15:17:56.915Z,15.97
2018-05-18T15:20:24.370Z,17.30
2018-05-18T15:22:51.821Z,16.13
2018-05-18T15:25:20.053Z,16.87
2018-05-18T15:27:48.427Z,13.57
2018-05-18T15:30:16.639Z,13.90
2018-05-18T15:32:44.093Z,12.30
2018-05-18T15:35:11.555Z,13.63
2018-05-18T15:37:39.000Z,12.93
2018-05-18T15:40:06.456Z,14.13
2018-05-18T15:42:33.973Z,14.70
2018-05-18T15:45:01.377Z,12.20
2018-05-18T15:47:28.841Z,14.73
2018-05-18T15:49:56.315Z,13.43
2018-05-18T15:52:23.804Z,14.00
2018-05-18T15:54:52.054Z,16.43
2018-05-18T15:57:19.559Z,16.53
2018-05-18T15:59:46.950Z,14.63
2018-05-18T16:02:14.523Z,13.80
2018-05-18T16:04:41.992Z,13.43
2018-05-18T16:07:09.436Z,13.93
2018-05-18T16:09:36.885Z,12.23
2018-05-18T16:12:04.339Z,11.43
2018-05-18T16:14:31.789Z,10.50
2018-05-18T16:16:59.239Z,10.10
2018-05-18T16:19:26.682Z,9.13
2018-05-18T16:21:54.152Z,8.80
2018-05-18T16:24:21.594Z,9.40
2018-05-18T16:26:49.089Z,9.47
2018-05-18T16:29:16.531Z,8.83
2018-05-18T16:31:43.986Z,7.80
2018-05-18T16:34:11.447Z,7.93
2018-05-18T16:36:38.904Z,7.00
2018-05-18T16:39:06.356Z,7.50
2018-05-18T16:41:33.815Z,8.17
2018-05-18T16:44:01.275Z,9.30
2018-05-18T16:46:28.727Z,7.90
2018-05-18T16:48:56.169Z,8.03
2018-05-18T16:51:23.624Z,10.37
2018-05-18T16:53:51.060Z,8.93
2018-05-18T16:56:18.528Z,7.40
2018-05-18T16:58:45.983Z,7.57
2018-05-18T17:01:13.434Z,9.10
2018-05-18T17:03:40.874Z,7.03
2018-05-18T17:06:09.108Z,8.40
2018-05-18T17:08:36.563Z,8.20
2018-05-18T17:11:04.019Z,11.83
2018-05-18T17:13:31.458Z,9.53
2018-05-18T17:15:58.918Z,8.97
2018-05-18T17:18:26.366Z,10.17
2018-05-18T17:20:53.866Z,10.07
2018-05-18T17:23:21.306Z,10.37
2018-05-18T17:25:48.769Z,10.40
2018-05-18T17:28:16.227Z,10.10
2018-05-18T17:30:43.670Z,9.17
2018-05-18T17:33:11.221Z,8.70
2018-05-18T17:35:38.579Z,9.17
2018-05-18T17:38:06.022Z,9.43
2018-05-18T17:40:33.484Z,9.87
2018-05-18T17:43:01.686Z,9.87
2018-05-18T17:45:29.130Z,9.30
2018-05-18T17:47:57.395Z,8.73
2018-05-18T17:50:24.830Z,8.63
2018-05-18T17:52:52.271Z,9.43
2018-05-18T17:55:20.484Z,9.30
2018-05-18T17:57:47.990Z,9.63
2018-05-18T18:00:16.212Z,10.50
2018-05-18T18:02:43.673Z,10.23
2018-05-18T18:05:11.131Z,10.50
2018-05-18T18:07:38.594Z,8.57
2018-05-18T18:10:06.047Z,9.13
2018-05-18T18:12:33.490Z,9.40
2018-05-18T18:15:00.938Z,8.90
2018-05-18T18:17:28.406Z,7.97
2018-05-18T18:19:55.874Z,8.07
2018-05-18T18:22:23.379Z,8.10
2018-05-18T18:24:50.810Z,7.27
2018-05-18T18:27:18.300Z,8.50
2018-05-18T18:29:46.513Z,6.03
2018-05-18T18:32:13.951Z,6.43
2018-05-18T18:34:41.406Z,6.90
2018-05-18T18:37:08.875Z,7.00
2018-05-18T18:39:36.341Z,7.13
2018-05-18T18:42:03.790Z,7.50
2018-05-18T18:44:32.019Z,7.80
2018-05-18T18:47:00.246Z,7.40
2018-05-18T18:49:27.700Z,6.57
2018-05-18T18:51:55.171Z,7.73
2018-05-18T18:54:22.623Z,7.00
2018-05-18T18:56:50.092Z,7.20
2018-05-18T18:59:17.542Z,7.10
2018-05-18T19:01:44.996Z,6.90
2018-05-18T19:04:12.501Z,6.87
2018-05-18T19:06:40.757Z,6.37
2018-05-18T19:09:08.218Z,7.27
2018-05-18T19:11:35.676Z,6.27
2018-05-18T19:14:03.122Z,6.63
2018-05-18T19:16:30.596Z,7.70
2018-05-18T19:18:58.802Z,7.70
2018-05-18T19:21:26.253Z,8.93
2018-05-18T19:23:53.712Z,7.50
2018-05-18T19:26:21.149Z,8.37
2018-05-18T19:28:49.360Z,7.43
2018-05-18T19:31:17.037Z,8.90
2018-05-18T19:33:44.498Z,7.83
2018-05-18T19:36:11.943Z,7.30
2018-05-18T19:38:39.434Z,68.40
2018-05-18T19:41:06.882Z,55.63
2018-05-18T19:43:34.334Z,27.77
2018-05-18T19:46:01.784Z,15.93
2018-05-18T19:48:30.006Z,17.33
2018-05-18T19:50:57.456Z,10.73
2018-05-18T19:53:25.680Z,20.47
2018-05-18T19:55:53.128Z,23.20
2018-05-18T19:58:21.317Z,13.60
2018-05-18T20:00:48.767Z,19.13
2018-05-18T20:03:16.209Z,16.80
2018-05-18T20:05:43.668Z,34.10
2018-05-18T20:08:11.165Z,33.60
2018-05-18T20:10:38.748Z,19.00
2018-05-18T20:13:06.971Z,17.20
2018-05-18T20:15:35.202Z,17.47
2018-05-18T20:18:03.415Z,10.97
2018-05-18T20:20:30.876Z,10.37
2018-05-18T20:22:58.333Z,10.80
2018-05-18T20:25:25.775Z,9.43
2018-05-18T20:27:53.239Z,8.97
2018-05-18T20:30:21.473Z,10.43
2018-05-18T20:32:49.694Z,10.43
2018-05-18T20:35:17.137Z,9.50
2018-05-18T20:37:44.589Z,9.50
2018-05-18T20:40:13.180Z,12.13
2018-05-18T20:42:41.397Z,10.73
2018-05-18T20:45:08.882Z,11.70
2018-05-18T20:47:36.324Z,10.43
2018-05-18T20:50:04.555Z,9.93
2018-05-18T20:52:32.003Z,12.10
2018-05-18T20:54:59.447Z,11.27
2018-05-18T20:57:26.904Z,10.30
2018-05-18T20:59:54.372Z,9.63
2018-05-18T21:02:21.814Z,10.10
2018-05-18T21:04:49.301Z,10.13
2018-05-18T21:07:16.768Z,9.97
2018-05-18T21:09:44.217Z,10.73
2018-05-18T21:12:11.670Z,10.63
2018-05-18T21:14:39.121Z,10.77
2018-05-18T21:17:06.569Z,9.97
2018-05-18T21:19:34.021Z,9.80
2018-05-18T21:22:01.477Z,10.93
2018-05-18T21:24:28.918Z,10.90
2018-05-18T21:26:56.819Z,10.27
2018-05-18T21:29:24.265Z,10.27
2018-05-18T21:31:51.733Z,11.37
2018-05-18T21:34:19.190Z,11.60
2018-05-18T21:36:46.664Z,10.43
2018-05-18T21:39:15.619Z,11.07
2018-05-18T21:41:43.469Z,10.67
2018-05-18T21:44:10.929Z,10.87
2018-05-18T21:46:38.393Z,10.90
2018-05-18T21:49:05.838Z,12.27
2018-05-18T21:51:33.294Z,11.47
2018-05-18T21:54:00.749Z,10.43
2018-05-18T21:56:28.207Z,11.50
2018-05-18T21:58:55.663Z,11.87
2018-05-18T22:01:23.110Z,11.00
2018-05-18T22:03:51.341Z,10.40
2018-05-18T22:06:18.792Z,10.77
2018-05-18T22:08:46.229Z,10.93
2018-05-18T22:11:14.270Z,10.73
2018-05-18T22:13:41.727Z,10.87
2018-05-18T22:16:09.951Z,10.70
2018-05-18T22:18:37.397Z,10.63
2018-05-18T22:21:05.615Z,11.97
2018-05-18T22:23:33.888Z,10.97
2018-05-18T22:26:01.334Z,10.10
2018-05-18T22:28:28.791Z,9.80
2018-05-18T22:30:56.238Z,8.83
2018-05-18T22:33:23.682Z,9.03
2018-05-18T22:35:51.131Z,8.60
2018-05-18T22:38:18.575Z,8.07
2018-05-18T22:40:46.021Z,9.27
2018-05-18T22:43:13.461Z,9.07
2018-05-18T22:45:40.915Z,10.60
2018-05-18T22:48:09.155Z,10.47
2018-05-18T22:50:36.596Z,9.80
2018-05-18T22:53:04.058Z,11.50
2018-05-18T22:55:31.509Z,9.90
2018-05-18T22:57:58.962Z,10.77
2018-05-18T23:00:26.415Z,11.10
2018-05-18T23:02:53.890Z,11.07
2018-05-18T23:05:21.338Z,10.57
2018-05-18T23:07:48.799Z,11.00
2018-05-18T23:10:16.264Z,11.90
2018-05-18T23:12:43.726Z,11.43
2018-05-18T23:15:11.180Z,11.07
2018-05-18T23:17:38.646Z,11.23
2018-05-18T23:20:06.110Z,10.73
2018-05-18T23:22:34.326Z,12.40
2018-05-18T23:25:01.810Z,11.97
2018-05-18T23:27:29.270Z,9.70
2018-05-18T23:29:56.732Z,10.70
2018-05-18T23:32:24.189Z,10.27
2018-05-18T23:34:51.638Z,9.90
2018-05-18T23:37:19.103Z,9.90
2018-05-18T23:39:46.558Z,10.73
2018-05-18T23:42:14.020Z,10.67
2018-05-18T23:44:41.477Z,10.07
2018-05-18T23:47:08.940Z,10.70
2018-05-18T23:49:36.418Z,11.10
2018-05-18T23:52:04.626Z,10.63
2018-05-18T23:54:32.087Z,11.80
2018-05-18T23:56:59.544Z,13.13
2018-05-18T23:59:26.998Z,12.20
